sensor_id;sensor_type;location;lat;lon;timestamp;temperature;humidity
13798;DHT22;6970;51.340;3.240;2023-04-03T00:01:11;7.00;99.90
13798;DHT22;6970;51.340;3.240;2023-04-03T00:03:40;7.00;99.90
13798;DHT22;6970;51.340;3.240;2023-04-03T00:06:10;7.00;99.90
13798;DHT22;6970;51.340;3.240;2023-04-03T00:08:38;7.00;99.90
13798;DHT22;6970;51.340;3.240;2023-04-03T00:11:05;7.10;99.90
13798;DHT22;6970;51.340;3.240;2023-04-03T00:13:33;7.00;99.90
13798;DHT22;6970;51.340;3.240;2023-04-03T00:16:00;7.00;99.90
13798;DHT22;6970;51.340;3.240;2023-04-03T00:18:28;7.00;99.90
13798;DHT22;6970;51.340;3.240;2023-04-03T00:20:56;7.00;99.90
13798;DHT22;6970;51.340;3.240;2023-04-03T00:23:22;7.00;99.90
13798;DHT22;6970;51.340;3.240;2023-04-03T00:25:50;7.00;99.90
13798;DHT22;6970;51.340;3.240;2023-04-03T00:28:17;7.00;99.90
13798;DHT22;6970;51.340;3.240;2023-04-03T00:30:45;7.00;99.90
13798;DHT22;6970;51.340;3.240;2023-04-03T00:33:12;7.00;99.90
13798;DHT22;6970;51.340;3.240;2023-04-03T00:35:40;7.00;99.90
13798;DHT22;6970;51.340;3.240;2023-04-03T00:38:08;6.90;99.90
13798;DHT22;6970;51.340;3.240;2023-04-03T00:40:38;6.90;99.90
13798;DHT22;6970;51.340;3.240;2023-04-03T00:43:21;6.90;99.90
13798;DHT22;6970;51.340;3.240;2023-04-03T00:45:51;6.90;99.90
13798;DHT22;6970;51.340;3.240;2023-04-03T00:50:58;6.90;99.90
13798;DHT22;6970;51.340;3.240;2023-04-03T00:53:30;6.90;99.90
13798;DHT22;6970;51.340;3.240;2023-04-03T00:55:58;6.80;99.90
13798;DHT22;6970;51.340;3.240;2023-04-03T00:59:07;6.80;99.90
13798;DHT22;6970;51.340;3.240;2023-04-03T01:01:28;6.80;99.90
13798;DHT22;6970;51.340;3.240;2023-04-03T01:03:55;6.80;99.90
13798;DHT22;6970;51.340;3.240;2023-04-03T01:06:33;6.80;99.90
13798;DHT22;6970;51.340;3.240;2023-04-03T01:09:01;6.80;99.90
13798;DHT22;6970;51.340;3.240;2023-04-03T01:11:28;6.80;99.90
13798;DHT22;6970;51.340;3.240;2023-04-03T01:13:55;6.80;99.90
13798;DHT22;6970;51.340;3.240;2023-04-03T01:16:22;6.80;99.90
13798;DHT22;6970;51.340;3.240;2023-04-03T01:18:49;6.70;99.90
13798;DHT22;6970;51.340;3.240;2023-04-03T01:21:27;6.70;99.90
13798;DHT22;6970;51.340;3.240;2023-04-03T01:24:33;6.70;99.90
13798;DHT22;6970;51.340;3.240;2023-04-03T01:27:04;6.70;99.90
13798;DHT22;6970;51.340;3.240;2023-04-03T01:29:32;6.70;99.90
13798;DHT22;6970;51.340;3.240;2023-04-03T01:32:01;6.60;99.90
13798;DHT22;6970;51.340;3.240;2023-04-03T01:34:28;6.60;99.90
13798;DHT22;6970;51.340;3.240;2023-04-03T01:36:56;6.60;99.90
13798;DHT22;6970;51.340;3.240;2023-04-03T01:39:23;6.60;99.90
13798;DHT22;6970;51.340;3.240;2023-04-03T01:41:50;6.60;99.90
13798;DHT22;6970;51.340;3.240;2023-04-03T01:44:17;6.50;99.90
13798;DHT22;6970;51.340;3.240;2023-04-03T01:46:44;6.50;99.90
13798;DHT22;6970;51.340;3.240;2023-04-03T01:49:11;6.50;99.90
13798;DHT22;6970;51.340;3.240;2023-04-03T01:51:38;6.50;99.90
13798;DHT22;6970;51.340;3.240;2023-04-03T01:54:05;6.50;99.90
13798;DHT22;6970;51.340;3.240;2023-04-03T01:56:32;6.40;99.90
13798;DHT22;6970;51.340;3.240;2023-04-03T01:58:59;6.40;99.90
13798;DHT22;6970;51.340;3.240;2023-04-03T02:01:26;6.40;99.90
13798;DHT22;6970;51.340;3.240;2023-04-03T02:03:53;6.40;99.90
13798;DHT22;6970;51.340;3.240;2023-04-03T02:06:20;6.40;99.90
13798;DHT22;6970;51.340;3.240;2023-04-03T02:08:47;6.30;99.90
13798;DHT22;6970;51.340;3.240;2023-04-03T02:11:14;6.30;99.90
13798;DHT22;6970;51.340;3.240;2023-04-03T02:13:41;6.30;99.90
13798;DHT22;6970;51.340;3.240;2023-04-03T02:16:09;6.30;99.90
13798;DHT22;6970;51.340;3.240;2023-04-03T02:18:37;6.30;99.90
13798;DHT22;6970;51.340;3.240;2023-04-03T02:21:04;6.20;99.90
13798;DHT22;6970;51.340;3.240;2023-04-03T02:23:32;6.20;99.90
13798;DHT22;6970;51.340;3.240;2023-04-03T02:26:08;6.20;99.90
13798;DHT22;6970;51.340;3.240;2023-04-03T02:28:36;6.10;99.90
13798;DHT22;6970;51.340;3.240;2023-04-03T02:31:04;6.10;99.90
13798;DHT22;6970;51.340;3.240;2023-04-03T02:33:33;6.10;99.90
13798;DHT22;6970;51.340;3.240;2023-04-03T02:36:00;6.10;99.90
13798;DHT22;6970;51.340;3.240;2023-04-03T02:38:27;6.10;99.90
13798;DHT22;6970;51.340;3.240;2023-04-03T02:41:00;6.10;99.90
13798;DHT22;6970;51.340;3.240;2023-04-03T02:43:27;6.10;99.90
13798;DHT22;6970;51.340;3.240;2023-04-03T02:45:54;6.00;99.90
13798;DHT22;6970;51.340;3.240;2023-04-03T02:48:22;6.00;99.90
13798;DHT22;6970;51.340;3.240;2023-04-03T02:50:49;6.00;99.90
13798;DHT22;6970;51.340;3.240;2023-04-03T02:53:16;6.00;99.90
13798;DHT22;6970;51.340;3.240;2023-04-03T02:55:44;5.90;99.90
13798;DHT22;6970;51.340;3.240;2023-04-03T02:58:12;5.90;99.90
13798;DHT22;6970;51.340;3.240;2023-04-03T03:00:39;5.90;99.90
13798;DHT22;6970;51.340;3.240;2023-04-03T03:03:06;5.90;99.90
13798;DHT22;6970;51.340;3.240;2023-04-03T03:05:33;5.80;99.90
13798;DHT22;6970;51.340;3.240;2023-04-03T03:08:00;5.80;99.90
13798;DHT22;6970;51.340;3.240;2023-04-03T03:10:27;5.80;99.90
13798;DHT22;6970;51.340;3.240;2023-04-03T03:12:54;5.80;99.90
13798;DHT22;6970;51.340;3.240;2023-04-03T03:15:21;5.80;99.90
13798;DHT22;6970;51.340;3.240;2023-04-03T03:17:48;5.80;99.90
13798;DHT22;6970;51.340;3.240;2023-04-03T03:20:17;5.80;99.90
13798;DHT22;6970;51.340;3.240;2023-04-03T03:22:44;5.70;99.90
13798;DHT22;6970;51.340;3.240;2023-04-03T03:25:11;5.70;99.90
13798;DHT22;6970;51.340;3.240;2023-04-03T03:27:38;5.70;99.90
13798;DHT22;6970;51.340;3.240;2023-04-03T03:30:05;5.70;99.90
13798;DHT22;6970;51.340;3.240;2023-04-03T03:32:32;5.60;99.90
13798;DHT22;6970;51.340;3.240;2023-04-03T03:34:59;5.60;99.90
13798;DHT22;6970;51.340;3.240;2023-04-03T03:37:26;5.60;99.90
13798;DHT22;6970;51.340;3.240;2023-04-03T03:39:54;5.60;99.90
13798;DHT22;6970;51.340;3.240;2023-04-03T03:42:21;5.50;99.90
13798;DHT22;6970;51.340;3.240;2023-04-03T03:44:49;5.50;99.90
13798;DHT22;6970;51.340;3.240;2023-04-03T03:47:16;5.50;99.90
13798;DHT22;6970;51.340;3.240;2023-04-03T03:49:43;5.50;99.90
13798;DHT22;6970;51.340;3.240;2023-04-03T03:52:10;5.50;99.90
13798;DHT22;6970;51.340;3.240;2023-04-03T03:54:37;5.40;99.90
13798;DHT22;6970;51.340;3.240;2023-04-03T03:57:05;5.40;99.90
13798;DHT22;6970;51.340;3.240;2023-04-03T03:59:33;5.40;99.90
13798;DHT22;6970;51.340;3.240;2023-04-03T04:02:00;5.30;99.90
13798;DHT22;6970;51.340;3.240;2023-04-03T04:04:27;5.30;99.90
13798;DHT22;6970;51.340;3.240;2023-04-03T04:06:54;5.30;99.90
13798;DHT22;6970;51.340;3.240;2023-04-03T04:09:21;5.20;99.90
13798;DHT22;6970;51.340;3.240;2023-04-03T04:11:48;5.20;99.90
13798;DHT22;6970;51.340;3.240;2023-04-03T04:14:15;5.20;99.90
13798;DHT22;6970;51.340;3.240;2023-04-03T04:16:44;5.10;99.90
13798;DHT22;6970;51.340;3.240;2023-04-03T04:19:13;5.10;99.90
13798;DHT22;6970;51.340;3.240;2023-04-03T04:21:40;5.10;99.90
13798;DHT22;6970;51.340;3.240;2023-04-03T04:24:08;5.10;99.90
13798;DHT22;6970;51.340;3.240;2023-04-03T04:26:35;5.10;99.90
13798;DHT22;6970;51.340;3.240;2023-04-03T04:29:02;5.00;99.90
13798;DHT22;6970;51.340;3.240;2023-04-03T04:31:29;5.00;99.90
13798;DHT22;6970;51.340;3.240;2023-04-03T04:33:56;5.00;99.90
13798;DHT22;6970;51.340;3.240;2023-04-03T04:36:23;5.00;99.90
13798;DHT22;6970;51.340;3.240;2023-04-03T04:38:50;5.00;99.90
13798;DHT22;6970;51.340;3.240;2023-04-03T04:41:20;4.90;99.90
13798;DHT22;6970;51.340;3.240;2023-04-03T04:43:49;4.90;99.90
13798;DHT22;6970;51.340;3.240;2023-04-03T04:46:17;4.90;99.90
13798;DHT22;6970;51.340;3.240;2023-04-03T04:48:44;4.90;99.90
13798;DHT22;6970;51.340;3.240;2023-04-03T04:51:11;4.90;99.90
13798;DHT22;6970;51.340;3.240;2023-04-03T04:53:38;4.90;99.90
13798;DHT22;6970;51.340;3.240;2023-04-03T04:56:06;4.80;99.90
13798;DHT22;6970;51.340;3.240;2023-04-03T04:58:33;4.80;99.90
13798;DHT22;6970;51.340;3.240;2023-04-03T05:01:05;4.80;99.90
13798;DHT22;6970;51.340;3.240;2023-04-03T05:03:33;4.80;99.90
13798;DHT22;6970;51.340;3.240;2023-04-03T05:06:01;4.70;99.90
13798;DHT22;6970;51.340;3.240;2023-04-03T05:08:28;4.70;99.90
13798;DHT22;6970;51.340;3.240;2023-04-03T05:10:55;4.70;99.90
13798;DHT22;6970;51.340;3.240;2023-04-03T05:13:22;4.70;99.90
13798;DHT22;6970;51.340;3.240;2023-04-03T05:15:49;4.70;99.90
13798;DHT22;6970;51.340;3.240;2023-04-03T05:18:16;4.70;99.90
13798;DHT22;6970;51.340;3.240;2023-04-03T05:20:44;4.70;99.90
13798;DHT22;6970;51.340;3.240;2023-04-03T05:23:11;4.70;99.90
13798;DHT22;6970;51.340;3.240;2023-04-03T05:25:38;4.70;99.90
13798;DHT22;6970;51.340;3.240;2023-04-03T05:28:06;4.70;99.90
13798;DHT22;6970;51.340;3.240;2023-04-03T05:30:33;4.70;99.90
13798;DHT22;6970;51.340;3.240;2023-04-03T05:33:00;4.70;99.90
13798;DHT22;6970;51.340;3.240;2023-04-03T05:35:27;4.70;99.90
13798;DHT22;6970;51.340;3.240;2023-04-03T05:37:54;4.70;99.90
13798;DHT22;6970;51.340;3.240;2023-04-03T05:40:22;4.70;99.90
13798;DHT22;6970;51.340;3.240;2023-04-03T05:42:49;4.70;99.90
13798;DHT22;6970;51.340;3.240;2023-04-03T05:45:16;4.70;99.90
13798;DHT22;6970;51.340;3.240;2023-04-03T05:47:43;4.70;99.90
13798;DHT22;6970;51.340;3.240;2023-04-03T05:50:10;4.80;99.90
13798;DHT22;6970;51.340;3.240;2023-04-03T05:52:39;4.80;99.90
13798;DHT22;6970;51.340;3.240;2023-04-03T05:55:07;4.80;99.90
13798;DHT22;6970;51.340;3.240;2023-04-03T05:57:34;4.80;99.90
13798;DHT22;6970;51.340;3.240;2023-04-03T06:00:04;4.90;99.90
13798;DHT22;6970;51.340;3.240;2023-04-03T06:02:32;4.90;99.90
13798;DHT22;6970;51.340;3.240;2023-04-03T06:04:59;4.90;99.90
13798;DHT22;6970;51.340;3.240;2023-04-03T06:07:27;5.00;99.90
13798;DHT22;6970;51.340;3.240;2023-04-03T06:09:56;5.00;99.90
13798;DHT22;6970;51.340;3.240;2023-04-03T06:12:23;5.00;99.90
13798;DHT22;6970;51.340;3.240;2023-04-03T06:14:50;5.10;99.90
13798;DHT22;6970;51.340;3.240;2023-04-03T06:17:18;5.10;99.90
13798;DHT22;6970;51.340;3.240;2023-04-03T06:19:45;5.10;99.90
13798;DHT22;6970;51.340;3.240;2023-04-03T06:22:13;5.20;99.90
13798;DHT22;6970;51.340;3.240;2023-04-03T06:24:40;5.30;99.90
13798;DHT22;6970;51.340;3.240;2023-04-03T06:27:09;5.30;99.90
13798;DHT22;6970;51.340;3.240;2023-04-03T06:29:37;5.40;99.90
13798;DHT22;6970;51.340;3.240;2023-04-03T06:32:04;5.50;99.90
13798;DHT22;6970;51.340;3.240;2023-04-03T06:34:31;5.60;99.90
13798;DHT22;6970;51.340;3.240;2023-04-03T06:36:58;5.80;99.90
13798;DHT22;6970;51.340;3.240;2023-04-03T06:39:25;6.00;99.90
13798;DHT22;6970;51.340;3.240;2023-04-03T06:41:52;6.10;99.90
13798;DHT22;6970;51.340;3.240;2023-04-03T06:44:19;6.30;99.90
13798;DHT22;6970;51.340;3.240;2023-04-03T06:46:46;6.50;99.90
13798;DHT22;6970;51.340;3.240;2023-04-03T06:49:13;6.60;99.90
13798;DHT22;6970;51.340;3.240;2023-04-03T06:51:41;6.80;99.90
13798;DHT22;6970;51.340;3.240;2023-04-03T06:54:08;7.10;99.90
13798;DHT22;6970;51.340;3.240;2023-04-03T06:56:35;7.30;99.90
13798;DHT22;6970;51.340;3.240;2023-04-03T06:59:03;7.40;99.90
13798;DHT22;6970;51.340;3.240;2023-04-03T07:01:30;7.60;99.90
13798;DHT22;6970;51.340;3.240;2023-04-03T07:03:58;7.80;99.90
13798;DHT22;6970;51.340;3.240;2023-04-03T07:06:25;7.90;99.90
13798;DHT22;6970;51.340;3.240;2023-04-03T07:08:54;8.10;99.90
13798;DHT22;6970;51.340;3.240;2023-04-03T07:11:21;8.30;99.90
13798;DHT22;6970;51.340;3.240;2023-04-03T07:13:49;8.50;99.90
13798;DHT22;6970;51.340;3.240;2023-04-03T07:16:16;8.70;99.90
13798;DHT22;6970;51.340;3.240;2023-04-03T07:18:44;8.90;99.90
13798;DHT22;6970;51.340;3.240;2023-04-03T07:21:11;9.10;99.90
13798;DHT22;6970;51.340;3.240;2023-04-03T07:23:39;9.30;99.90
13798;DHT22;6970;51.340;3.240;2023-04-03T07:26:06;9.50;99.90
13798;DHT22;6970;51.340;3.240;2023-04-03T07:28:34;9.80;99.90
13798;DHT22;6970;51.340;3.240;2023-04-03T07:31:07;10.10;99.90
13798;DHT22;6970;51.340;3.240;2023-04-03T07:33:36;10.40;99.90
13798;DHT22;6970;51.340;3.240;2023-04-03T07:36:05;10.60;99.90
13798;DHT22;6970;51.340;3.240;2023-04-03T07:38:34;10.90;99.90
13798;DHT22;6970;51.340;3.240;2023-04-03T07:41:02;11.20;99.90
13798;DHT22;6970;51.340;3.240;2023-04-03T07:43:30;11.40;99.90
13798;DHT22;6970;51.340;3.240;2023-04-03T07:45:57;11.60;99.90
13798;DHT22;6970;51.340;3.240;2023-04-03T07:48:26;11.80;99.90
13798;DHT22;6970;51.340;3.240;2023-04-03T07:50:53;12.00;99.90
13798;DHT22;6970;51.340;3.240;2023-04-03T07:53:20;12.30;99.90
13798;DHT22;6970;51.340;3.240;2023-04-03T07:55:48;12.50;99.90
13798;DHT22;6970;51.340;3.240;2023-04-03T07:58:17;12.70;99.90
13798;DHT22;6970;51.340;3.240;2023-04-03T08:00:45;12.90;99.90
13798;DHT22;6970;51.340;3.240;2023-04-03T08:03:12;13.10;99.90
13798;DHT22;6970;51.340;3.240;2023-04-03T08:05:41;13.40;99.90
13798;DHT22;6970;51.340;3.240;2023-04-03T08:08:10;13.70;99.90
13798;DHT22;6970;51.340;3.240;2023-04-03T08:10:38;13.90;99.40
13798;DHT22;6970;51.340;3.240;2023-04-03T08:13:06;14.10;98.90
13798;DHT22;6970;51.340;3.240;2023-04-03T08:15:32;14.40;98.60
13798;DHT22;6970;51.340;3.240;2023-04-03T08:18:00;14.70;98.70
13798;DHT22;6970;51.340;3.240;2023-04-03T08:20:28;14.90;99.00
13798;DHT22;6970;51.340;3.240;2023-04-03T08:22:56;15.20;98.60
13798;DHT22;6970;51.340;3.240;2023-04-03T08:25:23;15.50;98.00
13798;DHT22;6970;51.340;3.240;2023-04-03T08:27:50;15.80;98.50
13798;DHT22;6970;51.340;3.240;2023-04-03T08:30:17;16.10;97.50
13798;DHT22;6970;51.340;3.240;2023-04-03T08:32:44;16.20;96.70
13798;DHT22;6970;51.340;3.240;2023-04-03T08:35:11;16.30;96.40
13798;DHT22;6970;51.340;3.240;2023-04-03T08:37:39;16.50;95.70
13798;DHT22;6970;51.340;3.240;2023-04-03T08:40:10;16.60;95.50
13798;DHT22;6970;51.340;3.240;2023-04-03T08:43:03;16.80;95.40
13798;DHT22;6970;51.340;3.240;2023-04-03T08:45:46;17.20;95.10
13798;DHT22;6970;51.340;3.240;2023-04-03T08:48:26;17.50;94.60
13798;DHT22;6970;51.340;3.240;2023-04-03T08:50:58;17.90;94.00
13798;DHT22;6970;51.340;3.240;2023-04-03T08:53:32;18.10;93.50
13798;DHT22;6970;51.340;3.240;2023-04-03T08:56:10;18.50;93.30
13798;DHT22;6970;51.340;3.240;2023-04-03T08:58:52;18.70;92.50
13798;DHT22;6970;51.340;3.240;2023-04-03T09:03:51;18.90;92.00
13798;DHT22;6970;51.340;3.240;2023-04-03T09:06:31;19.00;92.00
13798;DHT22;6970;51.340;3.240;2023-04-03T09:17:02;19.90;87.40
13798;DHT22;6970;51.340;3.240;2023-04-03T09:19:39;20.20;86.30
13798;DHT22;6970;51.340;3.240;2023-04-03T09:22:13;20.30;83.00
13798;DHT22;6970;51.340;3.240;2023-04-03T09:24:50;20.30;81.00
13798;DHT22;6970;51.340;3.240;2023-04-03T09:27:19;20.30;81.10
13798;DHT22;6970;51.340;3.240;2023-04-03T09:29:46;20.50;79.40
13798;DHT22;6970;51.340;3.240;2023-04-03T09:32:26;20.60;79.70
13798;DHT22;6970;51.340;3.240;2023-04-03T09:34:59;20.70;78.50
13798;DHT22;6970;51.340;3.240;2023-04-03T09:37:46;21.00;78.00
13798;DHT22;6970;51.340;3.240;2023-04-03T09:40:35;21.20;76.40
13798;DHT22;6970;51.340;3.240;2023-04-03T09:43:20;21.40;75.40
13798;DHT22;6970;51.340;3.240;2023-04-03T09:45:48;21.60;73.80
13798;DHT22;6970;51.340;3.240;2023-04-03T09:48:18;21.80;71.70
13798;DHT22;6970;51.340;3.240;2023-04-03T09:50:55;21.90;72.90
13798;DHT22;6970;51.340;3.240;2023-04-03T09:53:28;22.30;72.80
13798;DHT22;6970;51.340;3.240;2023-04-03T09:55:57;22.60;72.10
13798;DHT22;6970;51.340;3.240;2023-04-03T09:58:45;22.60;72.60
13798;DHT22;6970;51.340;3.240;2023-04-03T10:01:31;22.50;72.10
13798;DHT22;6970;51.340;3.240;2023-04-03T10:04:19;22.50;71.60
13798;DHT22;6970;51.340;3.240;2023-04-03T10:06:54;22.60;70.50
13798;DHT22;6970;51.340;3.240;2023-04-03T10:09:29;22.50;70.60
13798;DHT22;6970;51.340;3.240;2023-04-03T10:12:03;22.40;69.30
13798;DHT22;6970;51.340;3.240;2023-04-03T10:25:20;21.10;67.60
13798;DHT22;6970;51.340;3.240;2023-04-03T10:35:44;21.40;65.70
13798;DHT22;6970;51.340;3.240;2023-04-03T10:41:13;21.40;64.50
13798;DHT22;6970;51.340;3.240;2023-04-03T10:44:07;21.40;63.10
13798;DHT22;6970;51.340;3.240;2023-04-03T10:46:44;21.50;64.40
13798;DHT22;6970;51.340;3.240;2023-04-03T10:49:41;21.40;64.00
13798;DHT22;6970;51.340;3.240;2023-04-03T10:55:13;21.60;64.60
13798;DHT22;6970;51.340;3.240;2023-04-03T10:57:43;21.40;64.30
13798;DHT22;6970;51.340;3.240;2023-04-03T11:00:21;21.40;65.10
13798;DHT22;6970;51.340;3.240;2023-04-03T11:05:44;21.80;64.60
13798;DHT22;6970;51.340;3.240;2023-04-03T11:08:27;22.00;65.20
13798;DHT22;6970;51.340;3.240;2023-04-03T11:10:59;22.10;63.60
13798;DHT22;6970;51.340;3.240;2023-04-03T11:13:53;21.90;63.60
13798;DHT22;6970;51.340;3.240;2023-04-03T11:16:26;21.30;63.20
13798;DHT22;6970;51.340;3.240;2023-04-03T11:23:57;20.50;65.40
13798;DHT22;6970;51.340;3.240;2023-04-03T11:26:30;20.40;64.90
13798;DHT22;6970;51.340;3.240;2023-04-03T11:29:03;20.30;65.90
13798;DHT22;6970;51.340;3.240;2023-04-03T11:36:53;19.00;68.40
13798;DHT22;6970;51.340;3.240;2023-04-03T11:42:23;18.40;69.90
13798;DHT22;6970;51.340;3.240;2023-04-03T11:45:16;18.50;69.90
13798;DHT22;6970;51.340;3.240;2023-04-03T11:47:50;18.50;67.20
13798;DHT22;6970;51.340;3.240;2023-04-03T12:06:41;17.10;63.30
13798;DHT22;6970;51.340;3.240;2023-04-03T12:10:13;16.70;63.60
13798;DHT22;6970;51.340;3.240;2023-04-03T12:12:39;16.70;65.40
13798;DHT22;6970;51.340;3.240;2023-04-03T12:15:23;16.60;65.40
13798;DHT22;6970;51.340;3.240;2023-04-03T12:17:51;16.50;64.20
13798;DHT22;6970;51.340;3.240;2023-04-03T12:20:56;16.50;63.70
13798;DHT22;6970;51.340;3.240;2023-04-03T12:23:27;16.50;63.70
13798;DHT22;6970;51.340;3.240;2023-04-03T12:26:22;16.50;64.10
13798;DHT22;6970;51.340;3.240;2023-04-03T12:28:58;16.30;64.30
13798;DHT22;6970;51.340;3.240;2023-04-03T12:31:37;16.50;66.10
13798;DHT22;6970;51.340;3.240;2023-04-03T12:42:20;16.60;62.30
13798;DHT22;6970;51.340;3.240;2023-04-03T12:45:09;16.60;62.00
13798;DHT22;6970;51.340;3.240;2023-04-03T12:47:37;16.50;60.90
13798;DHT22;6970;51.340;3.240;2023-04-03T12:50:16;16.30;60.10
13798;DHT22;6970;51.340;3.240;2023-04-03T12:52:57;16.20;61.80
13798;DHT22;6970;51.340;3.240;2023-04-03T12:55:27;16.20;63.30
13798;DHT22;6970;51.340;3.240;2023-04-03T12:57:54;16.10;60.00
13798;DHT22;6970;51.340;3.240;2023-04-03T13:00:35;16.00;61.90
13798;DHT22;6970;51.340;3.240;2023-04-03T13:03:03;15.90;59.20
13798;DHT22;6970;51.340;3.240;2023-04-03T13:05:32;15.60;57.90
13798;DHT22;6970;51.340;3.240;2023-04-03T13:08:10;15.40;59.10
13798;DHT22;6970;51.340;3.240;2023-04-03T13:11:00;15.40;59.70
13798;DHT22;6970;51.340;3.240;2023-04-03T13:13:29;15.60;60.30
13798;DHT22;6970;51.340;3.240;2023-04-03T13:15:57;15.70;59.70
13798;DHT22;6970;51.340;3.240;2023-04-03T13:18:42;15.80;62.90
13798;DHT22;6970;51.340;3.240;2023-04-03T13:21:18;15.90;66.90
13798;DHT22;6970;51.340;3.240;2023-04-03T13:23:49;16.00;66.80
13798;DHT22;6970;51.340;3.240;2023-04-03T13:26:29;16.00;66.40
13798;DHT22;6970;51.340;3.240;2023-04-03T13:29:04;15.90;66.50
13798;DHT22;6970;51.340;3.240;2023-04-03T13:31:34;15.70;68.10
13798;DHT22;6970;51.340;3.240;2023-04-03T13:34:12;15.60;68.40
13798;DHT22;6970;51.340;3.240;2023-04-03T13:36:44;15.40;67.30
13798;DHT22;6970;51.340;3.240;2023-04-03T13:41:50;15.10;67.60
13798;DHT22;6970;51.340;3.240;2023-04-03T13:47:20;14.90;69.10
13798;DHT22;6970;51.340;3.240;2023-04-03T13:52:30;15.00;68.20
13798;DHT22;6970;51.340;3.240;2023-04-03T13:58:23;15.00;67.10
13798;DHT22;6970;51.340;3.240;2023-04-03T14:01:07;15.00;67.20
13798;DHT22;6970;51.340;3.240;2023-04-03T14:03:43;15.00;67.90
13798;DHT22;6970;51.340;3.240;2023-04-03T14:06:13;14.90;68.60
13798;DHT22;6970;51.340;3.240;2023-04-03T14:08:40;14.80;68.90
13798;DHT22;6970;51.340;3.240;2023-04-03T14:11:21;14.80;69.60
13798;DHT22;6970;51.340;3.240;2023-04-03T14:13:49;14.80;69.60
13798;DHT22;6970;51.340;3.240;2023-04-03T14:16:26;14.60;70.20
13798;DHT22;6970;51.340;3.240;2023-04-03T14:18:54;14.60;71.70
13798;DHT22;6970;51.340;3.240;2023-04-03T14:21:21;14.60;71.80
13798;DHT22;6970;51.340;3.240;2023-04-03T14:23:48;14.60;72.40
13798;DHT22;6970;51.340;3.240;2023-04-03T14:26:18;14.50;71.20
13798;DHT22;6970;51.340;3.240;2023-04-03T14:28:49;14.60;72.20
13798;DHT22;6970;51.340;3.240;2023-04-03T14:31:17;14.50;70.30
13798;DHT22;6970;51.340;3.240;2023-04-03T14:33:46;14.40;69.40
13798;DHT22;6970;51.340;3.240;2023-04-03T14:36:32;14.30;68.60
13798;DHT22;6970;51.340;3.240;2023-04-03T14:39:00;14.20;68.10
13798;DHT22;6970;51.340;3.240;2023-04-03T14:41:27;14.20;68.50
13798;DHT22;6970;51.340;3.240;2023-04-03T14:43:56;14.10;67.40
13798;DHT22;6970;51.340;3.240;2023-04-03T14:46:32;14.10;66.70
13798;DHT22;6970;51.340;3.240;2023-04-03T14:49:22;14.10;68.00
13798;DHT22;6970;51.340;3.240;2023-04-03T14:51:50;14.10;68.10
13798;DHT22;6970;51.340;3.240;2023-04-03T14:54:19;14.00;68.30
13798;DHT22;6970;51.340;3.240;2023-04-03T14:56:52;14.00;67.70
13798;DHT22;6970;51.340;3.240;2023-04-03T14:59:19;14.00;68.90
13798;DHT22;6970;51.340;3.240;2023-04-03T15:01:48;13.90;66.60
13798;DHT22;6970;51.340;3.240;2023-04-03T15:04:18;13.80;65.50
13798;DHT22;6970;51.340;3.240;2023-04-03T15:06:46;13.70;63.10
13798;DHT22;6970;51.340;3.240;2023-04-03T15:09:25;13.70;63.60
13798;DHT22;6970;51.340;3.240;2023-04-03T15:11:54;13.80;65.20
13798;DHT22;6970;51.340;3.240;2023-04-03T15:14:22;13.80;65.40
13798;DHT22;6970;51.340;3.240;2023-04-03T15:17:08;13.80;66.30
13798;DHT22;6970;51.340;3.240;2023-04-03T15:19:38;13.70;66.00
13798;DHT22;6970;51.340;3.240;2023-04-03T15:22:06;13.70;66.80
13798;DHT22;6970;51.340;3.240;2023-04-03T15:24:33;13.60;67.90
13798;DHT22;6970;51.340;3.240;2023-04-03T15:27:01;13.60;67.00
13798;DHT22;6970;51.340;3.240;2023-04-03T15:29:28;13.40;65.50
13798;DHT22;6970;51.340;3.240;2023-04-03T15:31:55;13.40;66.20
13798;DHT22;6970;51.340;3.240;2023-04-03T15:34:22;13.40;66.00
13798;DHT22;6970;51.340;3.240;2023-04-03T15:36:49;13.40;66.10
13798;DHT22;6970;51.340;3.240;2023-04-03T15:39:19;13.30;66.70
13798;DHT22;6970;51.340;3.240;2023-04-03T15:41:47;13.30;68.00
13798;DHT22;6970;51.340;3.240;2023-04-03T15:44:14;13.20;66.80
13798;DHT22;6970;51.340;3.240;2023-04-03T15:46:45;13.20;65.50
13798;DHT22;6970;51.340;3.240;2023-04-03T15:49:13;13.20;63.50
13798;DHT22;6970;51.340;3.240;2023-04-03T15:51:40;13.30;64.10
13798;DHT22;6970;51.340;3.240;2023-04-03T15:54:07;13.40;65.20
13798;DHT22;6970;51.340;3.240;2023-04-03T15:56:34;13.50;64.70
13798;DHT22;6970;51.340;3.240;2023-04-03T15:59:02;13.50;65.50
13798;DHT22;6970;51.340;3.240;2023-04-03T16:01:29;13.50;67.20
13798;DHT22;6970;51.340;3.240;2023-04-03T16:03:56;13.30;66.60
13798;DHT22;6970;51.340;3.240;2023-04-03T16:06:24;13.20;65.80
13798;DHT22;6970;51.340;3.240;2023-04-03T16:08:51;13.10;66.00
13798;DHT22;6970;51.340;3.240;2023-04-03T16:11:26;13.10;67.40
13798;DHT22;6970;51.340;3.240;2023-04-03T16:13:54;13.00;65.70
13798;DHT22;6970;51.340;3.240;2023-04-03T16:16:22;13.00;65.60
13798;DHT22;6970;51.340;3.240;2023-04-03T16:18:50;12.90;63.80
13798;DHT22;6970;51.340;3.240;2023-04-03T16:21:17;12.80;62.20
13798;DHT22;6970;51.340;3.240;2023-04-03T16:23:44;12.70;62.30
13798;DHT22;6970;51.340;3.240;2023-04-03T16:26:11;12.70;62.50
13798;DHT22;6970;51.340;3.240;2023-04-03T16:28:38;12.70;62.70
13798;DHT22;6970;51.340;3.240;2023-04-03T16:31:06;12.50;62.40
13798;DHT22;6970;51.340;3.240;2023-04-03T16:33:34;12.40;62.10
13798;DHT22;6970;51.340;3.240;2023-04-03T16:36:01;12.30;62.30
13798;DHT22;6970;51.340;3.240;2023-04-03T16:38:30;12.30;62.60
13798;DHT22;6970;51.340;3.240;2023-04-03T16:40:57;12.20;62.40
13798;DHT22;6970;51.340;3.240;2023-04-03T16:43:26;12.10;62.50
13798;DHT22;6970;51.340;3.240;2023-04-03T16:45:53;12.10;62.50
13798;DHT22;6970;51.340;3.240;2023-04-03T16:48:20;12.10;62.80
13798;DHT22;6970;51.340;3.240;2023-04-03T16:50:48;12.10;64.90
13798;DHT22;6970;51.340;3.240;2023-04-03T16:53:15;12.00;65.90
13798;DHT22;6970;51.340;3.240;2023-04-03T16:55:42;12.00;64.60
13798;DHT22;6970;51.340;3.240;2023-04-03T16:58:09;12.00;64.10
13798;DHT22;6970;51.340;3.240;2023-04-03T17:00:36;11.90;63.30
13798;DHT22;6970;51.340;3.240;2023-04-03T17:03:04;11.80;63.30
13798;DHT22;6970;51.340;3.240;2023-04-03T17:05:31;11.70;68.00
13798;DHT22;6970;51.340;3.240;2023-04-03T17:07:58;11.60;71.70
13798;DHT22;6970;51.340;3.240;2023-04-03T17:10:26;11.60;73.50
13798;DHT22;6970;51.340;3.240;2023-04-03T17:12:53;11.50;71.80
13798;DHT22;6970;51.340;3.240;2023-04-03T17:15:20;11.40;69.90
13798;DHT22;6970;51.340;3.240;2023-04-03T17:17:48;11.30;70.00
13798;DHT22;6970;51.340;3.240;2023-04-03T17:20:16;11.20;73.90
13798;DHT22;6970;51.340;3.240;2023-04-03T17:22:43;11.10;76.90
13798;DHT22;6970;51.340;3.240;2023-04-03T17:25:11;11.10;78.20
13798;DHT22;6970;51.340;3.240;2023-04-03T17:27:38;11.10;77.50
13798;DHT22;6970;51.340;3.240;2023-04-03T17:30:07;11.00;74.80
13798;DHT22;6970;51.340;3.240;2023-04-03T17:32:34;10.90;72.90
13798;DHT22;6970;51.340;3.240;2023-04-03T17:35:01;10.90;72.10
13798;DHT22;6970;51.340;3.240;2023-04-03T17:37:28;10.80;71.80
13798;DHT22;6970;51.340;3.240;2023-04-03T17:39:55;10.80;74.00
13798;DHT22;6970;51.340;3.240;2023-04-03T17:42:22;10.70;75.60